createdAt,value
2018-08-31T00:00:11.115Z,98527.36
2018-08-31T00:02:47.973Z,98529.84
2018-08-31T00:05:57.051Z,98535.23
2018-08-31T00:08:38.345Z,98531.38
2018-08-31T00:13:19.925Z,98533.47
2018-08-31T00:15:51.112Z,98539.30
2018-08-31T00:18:22.782Z,98537.01
2018-08-31T00:20:55.183Z,98538.92
2018-08-31T00:24:36.888Z,98538.92
2018-08-31T00:27:18.245Z,98534.85
2018-08-31T00:30:00.143Z,98523.30
2018-08-31T00:33:44.861Z,98523.98
2018-08-31T00:38:23.994Z,98522.73
2018-08-31T00:41:08.585Z,98512.35
2018-08-31T00:44:45.364Z,98507.72
2018-08-31T00:47:15.656Z,98503.08
2018-08-31T00:49:46.407Z,98497.30
2018-08-31T00:52:16.668Z,98500.63
2018-08-31T00:54:47.983Z,98500.17
2018-08-31T00:57:18.352Z,98500.38
2018-08-31T00:59:49.110Z,98498.69
2018-08-31T01:02:31.365Z,98499.39
2018-08-31T01:05:02.472Z,98497.77
2018-08-31T01:07:32.836Z,98497.23
2018-08-31T01:10:03.118Z,98496.84
2018-08-31T01:12:33.304Z,98496.91
2018-08-31T01:15:03.676Z,98491.84
2018-08-31T01:17:34.403Z,98494.15
2018-08-31T01:20:05.139Z,98497.09
2018-08-31T01:22:35.424Z,98496.84
2018-08-31T01:25:05.987Z,98495.92
2018-08-31T01:27:36.372Z,98494.75
2018-08-31T01:30:08.215Z,98498.08
2018-08-31T01:32:38.514Z,98496.06
2018-08-31T01:35:08.947Z,98501.09
2018-08-31T01:37:39.494Z,98503.16
2018-08-31T01:40:11.069Z,98501.47
2018-08-31T01:42:41.928Z,98498.77
2018-08-31T01:45:12.088Z,98497.91
2018-08-31T01:47:42.952Z,98499.67
2018-08-31T01:50:13.989Z,98496.53
2018-08-31T01:52:44.895Z,98495.92
2018-08-31T01:55:16.183Z,98488.20
2018-08-31T01:57:46.702Z,98490.75
2018-08-31T02:00:17.261Z,98487.13
2018-08-31T02:02:48.308Z,98487.73
2018-08-31T02:05:20.003Z,98485.81
2018-08-31T02:07:51.031Z,98485.96
2018-08-31T02:10:22.035Z,98485.97
2018-08-31T02:12:53.612Z,98494.92
2018-08-31T02:15:23.778Z,98491.77
2018-08-31T02:17:54.860Z,98490.84
2018-08-31T02:20:25.009Z,98490.66
2018-08-31T02:22:55.843Z,98486.59
2018-08-31T02:25:26.534Z,98480.66
2018-08-31T02:27:57.834Z,98480.44
2018-08-31T02:30:29.332Z,98476.86
2018-08-31T02:33:00.900Z,98470.48
2018-08-31T02:35:31.850Z,98473.09
2018-08-31T02:38:02.737Z,98472.95
2018-08-31T02:40:32.919Z,98474.85
2018-08-31T02:43:03.056Z,98472.16
2018-08-31T02:45:33.257Z,98464.52
2018-08-31T02:48:03.581Z,98466.86
2018-08-31T02:50:33.978Z,98469.41
2018-08-31T02:53:04.171Z,98474.91
2018-08-31T02:55:35.221Z,98475.27
2018-08-31T02:58:07.079Z,98473.95
2018-08-31T03:00:38.556Z,98472.20
2018-08-31T03:03:10.027Z,98472.77
2018-08-31T03:05:41.271Z,98473.97
2018-08-31T03:08:12.577Z,98470.84
2018-08-31T03:10:43.843Z,98475.69
2018-08-31T03:13:15.187Z,98473.00
2018-08-31T03:15:45.334Z,98470.33
2018-08-31T03:18:16.317Z,98460.85
2018-08-31T03:20:46.904Z,98466.48
2018-08-31T03:23:18.507Z,98462.63
2018-08-31T03:25:49.741Z,98469.64
2018-08-31T03:28:21.567Z,98467.16
2018-08-31T03:30:51.936Z,98468.70
2018-08-31T03:33:22.439Z,98474.37
2018-08-31T03:35:53.721Z,98466.66
2018-08-31T03:38:24.787Z,98465.09
2018-08-31T03:40:56.750Z,98468.47
2018-08-31T03:43:27.088Z,98467.19
2018-08-31T03:45:57.536Z,98464.28
2018-08-31T03:48:28.971Z,98468.53
2018-08-31T03:50:59.254Z,98475.28
2018-08-31T03:53:30.618Z,98476.02
2018-08-31T03:56:01.271Z,98470.98
2018-08-31T03:58:33.489Z,98472.91
2018-08-31T04:01:04.417Z,98466.36
2018-08-31T04:03:35.074Z,98468.67
2018-08-31T04:06:06.126Z,98472.53
2018-08-31T04:08:37.053Z,98475.13
2018-08-31T04:11:07.625Z,98464.56
2018-08-31T04:13:38.518Z,98471.20
2018-08-31T04:16:09.013Z,98463.34
2018-08-31T04:18:39.244Z,98464.40
2018-08-31T04:21:11.067Z,98459.08
2018-08-31T04:23:41.465Z,98455.13
2018-08-31T04:26:12.539Z,98457.52
2018-08-31T04:28:43.127Z,98464.81
2018-08-31T04:31:15.960Z,98462.00
2018-08-31T04:33:47.507Z,98470.44
2018-08-31T04:36:18.586Z,98466.74
2018-08-31T04:38:48.692Z,98470.53
2018-08-31T04:41:19.328Z,98468.80
2018-08-31T04:43:50.170Z,98464.77
2018-08-31T04:46:22.918Z,98462.02
2018-08-31T04:48:53.394Z,98457.86
2018-08-31T04:51:23.901Z,98457.56
2018-08-31T04:53:56.208Z,98451.19
2018-08-31T04:56:26.450Z,98447.34
2018-08-31T04:58:57.648Z,98445.73
2018-08-31T05:01:28.265Z,98447.36
2018-08-31T05:03:59.136Z,98441.13
2018-08-31T05:06:30.140Z,98436.81
2018-08-31T05:09:00.363Z,98429.47
2018-08-31T05:11:34.860Z,98432.69
2018-08-31T05:14:06.323Z,98434.08
2018-08-31T05:16:39.712Z,98443.89
2018-08-31T05:19:11.248Z,98437.27
2018-08-31T05:21:42.040Z,98435.62
2018-08-31T05:24:16.191Z,98445.72
2018-08-31T05:26:47.152Z,98446.19
2018-08-31T05:29:18.177Z,98446.78
2018-08-31T05:31:54.974Z,98449.03
2018-08-31T05:34:29.955Z,98450.83
2018-08-31T05:37:03.810Z,98449.88
2018-08-31T05:39:43.031Z,98455.36
2018-08-31T05:42:14.718Z,98448.91
2018-08-31T05:44:46.736Z,98441.14
2018-08-31T05:47:17.585Z,98440.08
2018-08-31T05:49:48.302Z,98438.08
2018-08-31T05:52:19.174Z,98438.11
2018-08-31T05:54:50.808Z,98434.28
2018-08-31T05:57:21.367Z,98442.69
2018-08-31T06:00:11.822Z,98445.66
2018-08-31T06:02:43.311Z,98447.87
2018-08-31T06:05:15.536Z,98452.59
2018-08-31T06:07:50.094Z,98447.20
2018-08-31T06:10:22.318Z,98435.66
2018-08-31T06:12:54.715Z,98437.27
2018-08-31T06:15:25.911Z,98445.08
2018-08-31T06:18:18.072Z,98458.88
2018-08-31T06:20:49.454Z,98455.06
2018-08-31T06:23:20.321Z,98451.69
2018-08-31T06:25:52.488Z,98445.92
2018-08-31T06:28:23.063Z,98440.92
2018-08-31T06:30:54.581Z,98443.00
2018-08-31T06:33:31.755Z,98438.39
2018-08-31T06:36:03.379Z,98438.23
2018-08-31T06:38:35.033Z,98444.02
2018-08-31T06:41:05.349Z,98442.70
2018-08-31T06:43:41.761Z,98435.27
2018-08-31T06:46:14.038Z,98437.39
2018-08-31T06:48:45.375Z,98441.62
2018-08-31T06:51:16.047Z,98442.35
2018-08-31T06:53:47.569Z,98440.82
2018-08-31T06:56:18.395Z,98448.91
2018-08-31T06:58:49.812Z,98449.08
2018-08-31T07:01:21.990Z,98448.35
2018-08-31T07:03:53.084Z,98448.28
2018-08-31T07:06:24.452Z,98450.58
2018-08-31T07:08:55.184Z,98447.81
2018-08-31T07:11:30.459Z,98445.22
2018-08-31T07:14:04.513Z,98450.87
2018-08-31T07:16:36.475Z,98458.08
2018-08-31T07:19:08.840Z,98461.47
2018-08-31T07:21:40.387Z,98457.89
2018-08-31T07:24:11.033Z,98459.68
2018-08-31T07:26:44.011Z,98453.45
2018-08-31T07:29:14.628Z,98456.93
2018-08-31T07:31:47.085Z,98460.84
2018-08-31T07:34:20.876Z,98453.66
2018-08-31T07:36:52.936Z,98454.53
2018-08-31T07:39:23.620Z,98463.50
2018-08-31T07:41:53.857Z,98466.22
2018-08-31T07:44:23.946Z,98463.81
2018-08-31T07:46:55.849Z,98467.36
2018-08-31T07:49:27.140Z,98467.44
2018-08-31T07:51:59.263Z,98459.30
2018-08-31T07:54:31.930Z,98463.47
2018-08-31T07:57:02.989Z,98459.31
2018-08-31T07:59:33.375Z,98460.28
2018-08-31T08:02:05.191Z,98451.63
2018-08-31T08:04:36.732Z,98446.16
2018-08-31T08:07:08.377Z,98441.11
2018-08-31T08:09:41.640Z,98450.11
2018-08-31T08:12:30.822Z,98453.89
2018-08-31T08:15:01.916Z,98461.66
2018-08-31T08:17:34.219Z,98460.44
2018-08-31T08:20:07.393Z,98464.23
2018-08-31T08:22:40.166Z,98467.50
2018-08-31T08:25:13.516Z,98467.27
2018-08-31T08:27:45.421Z,98466.58
2018-08-31T08:30:17.028Z,98464.27
2018-08-31T08:32:48.661Z,98464.15
2018-08-31T08:35:22.649Z,98462.56
2018-08-31T08:37:52.968Z,98467.86
2018-08-31T08:40:23.411Z,98469.78
2018-08-31T08:42:55.199Z,98474.70
2018-08-31T08:45:26.552Z,98473.30
2018-08-31T08:47:56.637Z,98471.28
2018-08-31T08:50:27.722Z,98472.12
2018-08-31T08:52:58.215Z,98467.27
2018-08-31T08:55:28.304Z,98473.30
2018-08-31T08:57:59.049Z,98474.73
2018-08-31T09:00:29.959Z,98480.84
2018-08-31T09:03:00.973Z,98478.73
2018-08-31T09:05:31.122Z,98482.45
2018-08-31T09:08:01.644Z,98478.61
2018-08-31T09:10:33.846Z,98474.46
2018-08-31T09:13:04.006Z,98478.83
2018-08-31T09:15:35.027Z,98467.28
2018-08-31T09:18:06.235Z,98474.06
2018-08-31T09:20:36.348Z,98480.41
2018-08-31T09:23:09.235Z,98474.46
2018-08-31T09:25:39.630Z,98472.39
2018-08-31T09:28:10.190Z,98474.89
2018-08-31T09:30:44.092Z,98473.99
2018-08-31T09:33:18.230Z,98468.12
2018-08-31T09:35:56.399Z,98477.09
2018-08-31T09:38:27.888Z,98479.17
2018-08-31T09:40:58.582Z,98470.61
2018-08-31T09:43:29.630Z,98477.53
2018-08-31T09:46:01.860Z,98470.02
2018-08-31T09:48:32.435Z,98467.22
2018-08-31T09:51:04.292Z,98460.91
2018-08-31T09:53:34.886Z,98466.02
2018-08-31T09:56:05.492Z,98466.66
2018-08-31T09:58:35.948Z,98463.27
2018-08-31T10:01:12.864Z,98466.75
2018-08-31T10:03:44.269Z,98457.80
2018-08-31T10:06:15.432Z,98455.34
2018-08-31T10:08:46.090Z,98457.31
2018-08-31T10:11:16.809Z,98454.81
2018-08-31T10:13:47.474Z,98445.51
2018-08-31T10:16:18.429Z,98448.07
2018-08-31T10:18:50.740Z,98448.16
2018-08-31T10:21:20.911Z,98446.52
2018-08-31T10:23:52.173Z,98446.94
2018-08-31T10:26:22.402Z,98451.95
2018-08-31T10:28:52.811Z,98447.25
2018-08-31T10:31:25.281Z,98454.82
2018-08-31T10:33:57.142Z,98456.20
2018-08-31T10:36:27.255Z,98445.63
2018-08-31T10:38:57.460Z,98443.01
2018-08-31T10:41:28.912Z,98443.45
2018-08-31T10:44:02.037Z,98440.22
2018-08-31T10:46:36.172Z,98438.95
2018-08-31T10:49:08.756Z,98439.59
2018-08-31T10:51:39.183Z,98435.11
2018-08-31T10:54:10.735Z,98440.00
2018-08-31T10:56:41.275Z,98432.55
2018-08-31T10:59:11.976Z,98429.81
2018-08-31T11:01:42.528Z,98434.45
2018-08-31T11:04:14.627Z,98431.72
2018-08-31T11:06:47.330Z,98433.34
2018-08-31T11:09:18.439Z,98437.17
2018-08-31T11:11:50.233Z,98443.06
2018-08-31T11:14:20.573Z,98425.80
2018-08-31T11:16:51.225Z,98427.19
2018-08-31T11:19:21.332Z,98426.91
2018-08-31T11:21:52.591Z,98430.50
2018-08-31T11:24:22.895Z,98426.06
2018-08-31T11:26:53.137Z,98426.30
2018-08-31T11:29:23.935Z,98425.91
2018-08-31T11:31:55.962Z,98428.10
2018-08-31T11:34:27.339Z,98428.59
2018-08-31T11:36:58.127Z,98431.70
2018-08-31T11:42:20.751Z,98439.96
2018-08-31T11:44:51.134Z,98437.36
2018-08-31T11:47:21.474Z,98435.13
2018-08-31T11:49:51.635Z,98433.44
2018-08-31T11:52:21.804Z,98434.64
2018-08-31T11:54:52.581Z,98425.39
2018-08-31T11:57:23.117Z,98437.22
2018-08-31T11:59:53.133Z,98432.27
2018-08-31T12:02:23.744Z,98431.23
2018-08-31T12:04:54.868Z,98432.66
2018-08-31T12:07:25.898Z,98430.10
2018-08-31T12:09:56.496Z,98433.80
2018-08-31T12:12:26.807Z,98428.12
2018-08-31T12:14:57.217Z,98427.17
2018-08-31T12:17:27.372Z,98434.48
2018-08-31T12:19:58.542Z,98428.70
2018-08-31T12:22:28.709Z,98429.70
2018-08-31T12:24:58.878Z,98419.38
2018-08-31T12:27:29.120Z,98427.09
2018-08-31T12:29:59.143Z,98434.66
2018-08-31T12:32:29.987Z,98427.42
2018-08-31T12:35:01.014Z,98424.12
2018-08-31T12:37:31.064Z,98419.31
2018-08-31T12:40:01.429Z,98418.49
2018-08-31T12:42:32.049Z,98414.59
2018-08-31T12:45:02.236Z,98421.47
2018-08-31T12:47:32.226Z,98420.64
2018-08-31T12:50:02.596Z,98415.22
2018-08-31T12:52:33.844Z,98422.53
2018-08-31T12:55:04.104Z,98423.25
2018-08-31T12:57:35.766Z,98421.83
2018-08-31T13:00:06.507Z,98414.80
2018-08-31T13:02:36.708Z,98415.64
2018-08-31T13:05:07.408Z,98416.64
2018-08-31T13:07:37.754Z,98423.84
2018-08-31T13:10:07.809Z,98426.98
2018-08-31T13:12:37.869Z,98421.31
2018-08-31T13:15:08.079Z,98419.94
2018-08-31T13:17:38.379Z,98418.20
2018-08-31T13:20:08.440Z,98415.31
2018-08-31T13:22:39.144Z,98417.19
2018-08-31T13:25:10.180Z,98416.55
2018-08-31T13:27:40.286Z,98414.99
2018-08-31T13:30:10.438Z,98421.20
2018-08-31T13:32:40.808Z,98425.88
2018-08-31T13:35:11.330Z,98422.73
2018-08-31T13:37:41.452Z,98423.81
2018-08-31T13:40:11.572Z,98426.41
2018-08-31T13:42:41.639Z,98426.52
2018-08-31T13:45:11.856Z,98430.66
2018-08-31T13:47:42.439Z,98435.70
2018-08-31T13:50:13.088Z,98435.42
2018-08-31T13:52:43.305Z,98434.70
2018-08-31T13:55:14.176Z,98433.25
2018-08-31T13:57:44.342Z,98430.27
2018-08-31T14:00:14.698Z,98434.13
2018-08-31T14:02:45.241Z,98432.67
2018-08-31T14:05:15.516Z,98428.96
2018-08-31T14:07:45.861Z,98441.17
2018-08-31T14:10:16.862Z,98444.75
2018-08-31T14:12:47.173Z,98445.97
2018-08-31T14:15:17.325Z,98445.26
2018-08-31T14:17:48.255Z,98439.24
2018-08-31T14:20:19.300Z,98441.89
2018-08-31T14:22:49.411Z,98442.00
2018-08-31T14:25:19.574Z,98443.46
2018-08-31T14:27:53.489Z,98441.02
2018-08-31T14:30:23.591Z,98439.57
2018-08-31T14:32:53.808Z,98438.45
2018-08-31T14:35:26.614Z,98438.05
2018-08-31T14:37:59.338Z,98442.39
2018-08-31T14:40:31.052Z,98440.39
2018-08-31T14:43:01.131Z,98439.41
2018-08-31T14:45:31.692Z,98443.81
2018-08-31T14:48:01.921Z,98439.98
2018-08-31T14:50:31.991Z,98438.30
2018-08-31T14:53:02.051Z,98432.05
2018-08-31T14:55:32.067Z,98430.98
2018-08-31T14:58:02.059Z,98439.72
2018-08-31T15:00:32.257Z,98438.86
2018-08-31T15:03:02.365Z,98431.27
2018-08-31T15:05:32.529Z,98436.88
2018-08-31T15:08:02.969Z,98440.70
2018-08-31T15:10:33.013Z,98438.75
2018-08-31T15:13:03.282Z,98438.53
2018-08-31T15:15:33.537Z,98446.86
2018-08-31T15:18:03.663Z,98440.56
2018-08-31T15:20:33.964Z,98445.02
2018-08-31T15:23:04.107Z,98440.27
2018-08-31T15:25:34.453Z,98442.14
2018-08-31T15:28:04.515Z,98444.17
2018-08-31T15:30:35.219Z,98444.94
2018-08-31T15:33:05.372Z,98447.88
2018-08-31T15:35:35.634Z,98443.56
2018-08-31T15:38:06.405Z,98445.23
2018-08-31T15:40:36.537Z,98446.72
2018-08-31T15:43:06.728Z,98449.47
2018-08-31T15:45:36.895Z,98442.55
2018-08-31T15:48:07.017Z,98447.63
2018-08-31T15:50:37.131Z,98443.23
2018-08-31T15:53:07.181Z,98435.84
2018-08-31T15:55:37.317Z,98437.64
2018-08-31T15:58:07.439Z,98439.81
2018-08-31T16:00:37.574Z,98443.34
2018-08-31T16:03:07.684Z,98440.02
2018-08-31T16:05:37.779Z,98439.37
2018-08-31T16:08:08.165Z,98438.36
2018-08-31T16:10:38.304Z,98440.98
2018-08-31T16:13:08.824Z,98449.09
2018-08-31T16:15:39.031Z,98449.54
2018-08-31T16:18:09.403Z,98442.98
2018-08-31T16:20:40.525Z,98445.06
2018-08-31T16:23:10.796Z,98452.57
2018-08-31T16:25:41.245Z,98457.91
2018-08-31T16:28:11.460Z,98462.81
2018-08-31T16:30:41.698Z,98455.56
2018-08-31T16:33:12.760Z,98446.69
2018-08-31T16:35:43.302Z,98453.09
2018-08-31T16:38:14.458Z,98446.55
2018-08-31T16:40:44.610Z,98444.80
2018-08-31T16:43:14.784Z,98449.50
2018-08-31T16:45:44.969Z,98448.55
2018-08-31T16:48:15.191Z,98449.84
2018-08-31T16:50:45.254Z,98451.98
2018-08-31T16:53:15.500Z,98450.09
2018-08-31T16:55:45.671Z,98460.86
2018-08-31T16:58:15.799Z,98463.61
2018-08-31T17:00:46.104Z,98470.68
2018-08-31T17:03:16.426Z,98464.99
2018-08-31T17:05:46.799Z,98465.47
2018-08-31T17:08:17.003Z,98472.20
2018-08-31T17:10:47.224Z,98476.67
2018-08-31T17:13:17.535Z,98472.06
2018-08-31T17:15:47.939Z,98471.49
2018-08-31T17:18:18.224Z,98470.75
2018-08-31T17:20:48.418Z,98471.69
2018-08-31T17:23:18.584Z,98471.42
2018-08-31T17:25:48.890Z,98482.14
2018-08-31T17:28:24.394Z,98482.14
2018-08-31T17:30:59.713Z,98477.39
2018-08-31T17:33:36.548Z,98471.89
2018-08-31T17:36:12.350Z,98469.67
2018-08-31T17:38:43.099Z,98463.34
2018-08-31T17:41:13.787Z,98472.51
2018-08-31T17:43:44.554Z,98481.66
2018-08-31T17:46:15.324Z,98494.34
2018-08-31T17:48:46.747Z,98497.83
2018-08-31T17:51:17.283Z,98495.00
2018-08-31T17:53:48.018Z,98497.98
2018-08-31T17:56:18.667Z,98492.23
2018-08-31T17:58:50.559Z,98495.23
2018-08-31T18:01:22.059Z,98493.44
2018-08-31T18:03:52.465Z,98497.97
2018-08-31T18:06:23.501Z,98498.25
2018-08-31T18:08:53.725Z,98507.11
2018-08-31T18:11:26.505Z,98518.36
2018-08-31T18:13:58.389Z,98514.25
2018-08-31T18:16:28.848Z,98509.35
2018-08-31T18:18:59.218Z,98507.84
2018-08-31T18:21:29.601Z,98508.98
2018-08-31T18:24:00.278Z,98513.44
2018-08-31T18:26:30.660Z,98523.61
2018-08-31T18:29:01.035Z,98536.55
2018-08-31T18:31:31.222Z,98534.66
2018-08-31T18:34:01.520Z,98536.23
2018-08-31T18:36:31.648Z,98531.56
2018-08-31T18:39:01.983Z,98525.09
2018-08-31T18:41:32.158Z,98523.64
2018-08-31T18:44:02.417Z,98534.31
2018-08-31T18:46:33.348Z,98529.42
2018-08-31T18:49:03.429Z,98534.81
2018-08-31T18:51:36.627Z,98545.16
2018-08-31T18:54:07.194Z,98546.39
2018-08-31T18:56:37.419Z,98548.72
2018-08-31T18:59:07.734Z,98554.94
2018-08-31T19:01:38.188Z,98551.13
2018-08-31T19:04:08.354Z,98541.59
2018-08-31T19:06:38.440Z,98546.02
2018-08-31T19:09:09.422Z,98549.03
2018-08-31T19:11:39.971Z,98548.74
2018-08-31T19:14:10.429Z,98551.59
2018-08-31T19:16:41.037Z,98552.06
2018-08-31T19:19:11.287Z,98547.27
2018-08-31T19:21:41.564Z,98549.30
2018-08-31T19:24:12.087Z,98550.72
2018-08-31T19:26:42.236Z,98538.11
2018-08-31T19:29:12.612Z,98542.72
2018-08-31T19:31:42.805Z,98546.77
2018-08-31T19:34:12.918Z,98549.09
2018-08-31T19:36:43.058Z,98549.56
2018-08-31T19:39:13.269Z,98553.55
2018-08-31T19:41:43.402Z,98554.75
2018-08-31T19:44:13.519Z,98558.72
2018-08-31T19:46:44.363Z,98556.47
2018-08-31T19:49:14.785Z,98561.08
2018-08-31T19:51:45.123Z,98570.56
2018-08-31T19:54:15.971Z,98566.25
2018-08-31T19:56:46.139Z,98573.78
2018-08-31T19:59:16.243Z,98572.27
2018-08-31T20:01:46.444Z,98569.94
2018-08-31T20:04:16.657Z,98573.77
2018-08-31T20:06:46.745Z,98578.85
2018-08-31T20:09:16.970Z,98587.80
2018-08-31T20:11:47.167Z,98590.34
2018-08-31T20:14:17.503Z,98595.45
2018-08-31T20:16:47.739Z,98594.24
2018-08-31T20:19:18.005Z,98599.37
2018-08-31T20:21:48.205Z,98599.31
2018-08-31T20:24:18.404Z,98593.86
2018-08-31T20:26:48.522Z,98594.89
2018-08-31T20:29:18.634Z,98599.69
2018-08-31T20:31:48.884Z,98594.61
2018-08-31T20:34:18.966Z,98597.06
2018-08-31T20:36:49.023Z,98602.32
2018-08-31T20:39:19.430Z,98605.13
2018-08-31T20:41:49.568Z,98604.75
2018-08-31T20:44:19.637Z,98602.89
2018-08-31T20:46:49.713Z,98597.89
2018-08-31T20:49:20.070Z,98602.42
2018-08-31T20:51:50.239Z,98603.66
2018-08-31T20:54:21.162Z,98614.28
2018-08-31T20:56:51.183Z,98611.73
2018-08-31T20:59:21.412Z,98622.19
2018-08-31T21:01:51.891Z,98613.70
2018-08-31T21:04:22.048Z,98615.39
2018-08-31T21:06:52.170Z,98608.43
2018-08-31T21:09:22.288Z,98609.02
2018-08-31T21:11:53.058Z,98605.23
2018-08-31T21:14:23.218Z,98616.33
2018-08-31T21:16:53.296Z,98609.84
2018-08-31T21:19:24.577Z,98603.63
2018-08-31T21:21:54.995Z,98609.11
2018-08-31T21:24:25.300Z,98613.70
2018-08-31T21:26:55.695Z,98615.14
2018-08-31T21:29:25.806Z,98618.50
2018-08-31T21:31:56.136Z,98609.84
2018-08-31T21:34:26.399Z,98610.59
2018-08-31T21:36:56.739Z,98610.75
2018-08-31T21:39:27.513Z,98606.31
2018-08-31T21:41:58.082Z,98598.03
2018-08-31T21:44:28.682Z,98601.16
2018-08-31T21:46:58.904Z,98606.04
2018-08-31T21:49:29.148Z,98612.69
2018-08-31T21:51:59.630Z,98615.55
2018-08-31T21:54:30.873Z,98613.97
2018-08-31T21:57:01.490Z,98604.74
2018-08-31T21:59:31.685Z,98603.67
2018-08-31T22:02:01.937Z,98612.25
2018-08-31T22:04:32.388Z,98612.74
2018-08-31T22:07:02.602Z,98618.47
2018-08-31T22:09:32.865Z,98624.69
2018-08-31T22:12:03.187Z,98626.38
2018-08-31T22:14:34.043Z,98621.20
2018-08-31T22:17:04.332Z,98628.16
2018-08-31T22:19:34.449Z,98631.34
2018-08-31T22:22:04.661Z,98631.95
2018-08-31T22:24:34.905Z,98630.53
2018-08-31T22:27:05.282Z,98623.42
2018-08-31T22:29:35.531Z,98633.86
2018-08-31T22:32:06.345Z,98639.98
2018-08-31T22:34:36.692Z,98642.83
2018-08-31T22:37:06.774Z,98650.98
2018-08-31T22:39:36.875Z,98643.78
2018-08-31T22:42:06.960Z,98644.80
2018-08-31T22:44:37.262Z,98645.41
2018-08-31T22:47:08.431Z,98646.72
2018-08-31T22:49:38.653Z,98641.53
2018-08-31T22:52:08.719Z,98636.83
2018-08-31T22:54:39.127Z,98631.02
2018-08-31T22:57:09.138Z,98632.49
2018-08-31T22:59:39.650Z,98626.30
2018-08-31T23:02:09.665Z,98617.72
2018-08-31T23:04:39.782Z,98616.00
2018-08-31T23:07:15.428Z,98620.00
2018-08-31T23:09:47.341Z,98616.80
2018-08-31T23:12:17.403Z,98618.03
2018-08-31T23:14:48.186Z,98615.64
2018-08-31T23:17:21.728Z,98613.28
2018-08-31T23:19:52.664Z,98612.48
2018-08-31T23:22:23.322Z,98609.67
2018-08-31T23:24:58.922Z,98605.46
2018-08-31T23:27:33.417Z,98606.51
2018-08-31T23:30:04.738Z,98613.30
2018-08-31T23:32:35.335Z,98605.58
2018-08-31T23:35:07.245Z,98588.69
2018-08-31T23:37:38.724Z,98593.09
2018-08-31T23:40:10.124Z,98591.13
2018-08-31T23:42:44.769Z,98597.19
2018-08-31T23:45:15.732Z,98604.61
2018-08-31T23:47:46.366Z,98603.14
2018-08-31T23:50:16.867Z,98603.17
2018-08-31T23:52:48.122Z,98604.19
2018-08-31T23:55:19.698Z,98599.53
2018-08-31T23:57:50.686Z,98600.52
